Time;durP1;ratioP1;P1;durP2;ratioP2;P2;SDS_P1;SDS_P2;PMS_P1;PMS_P2;Temp;Humidity;BMP_temperature;BMP_pressure;BME280_temperature;BME280_humidity;BME280_pressure;Samples;Min_cycle;Max_cycle;Signal;HPM_P1;HPM_P2
2021/06/17 00:01:29;;;;;;;;;;;16.50;99.90;;;;;;5075959;28;19924;-81
2021/06/17 00:03:56;;;;;;;;;;;16.50;99.90;;;;;;5075916;28;19947;-81
2021/06/17 00:06:23;;;;;;;;;;;16.50;99.90;;;;;;5075628;28;20260;-81
2021/06/17 00:08:49;;;;;;;;;;;16.50;99.90;;;;;;5075757;28;19935;-81
2021/06/17 00:11:16;;;;;;;;;;;16.40;99.90;;;;;;5076056;28;19925;-81
2021/06/17 00:13:43;;;;;;;;;;;16.40;99.90;;;;;;5075740;28;20278;-81
2021/06/17 00:16:11;;;;;;;;;;;16.40;99.90;;;;;;5075636;28;19935;-81
2021/06/17 00:18:38;;;;;;;;;;;16.40;99.90;;;;;;5075659;28;19950;-81
2021/06/17 00:21:05;;;;;;;;;;;16.40;99.90;;;;;;5075932;28;19936;-81
2021/06/17 00:23:32;;;;;;;;;;;16.30;99.90;;;;;;5075512;28;20349;-81
2021/06/17 00:25:59;;;;;;;;;;;16.30;99.90;;;;;;5075502;28;20352;-81
2021/06/17 00:28:26;;;;;;;;;;;16.30;99.90;;;;;;5075533;28;19925;-81
2021/06/17 00:30:53;;;;;;;;;;;16.30;99.90;;;;;;5075437;28;19924;-81
2021/06/17 00:33:21;;;;;;;;;;;16.30;99.90;;;;;;5075439;28;20268;-81
2021/06/17 00:35:48;;;;;;;;;;;16.30;99.90;;;;;;5075449;28;19925;-81
2021/06/17 00:38:14;;;;;;;;;;;16.30;99.90;;;;;;5075433;28;19925;-81
2021/06/17 00:40:41;;;;;;;;;;;16.30;99.90;;;;;;5075637;28;19925;-81
2021/06/17 00:43:08;;;;;;;;;;;16.20;99.90;;;;;;5075402;28;20311;-81
2021/06/17 00:45:35;;;;;;;;;;;16.20;99.90;;;;;;5075347;28;19934;-81
2021/06/17 00:48:02;;;;;;;;;;;16.20;99.90;;;;;;5075510;28;19924;-81
2021/06/17 00:50:31;;;;;;;;;;;16.20;99.90;;;;;;5075250;28;19924;-81
2021/06/17 00:52:58;;;;;;;;;;;16.10;99.90;;;;;;5075130;28;19929;-81
2021/06/17 00:55:25;;;;;;;;;;;16.10;99.90;;;;;;5075297;28;19935;-81
2021/06/17 00:57:52;;;;;;;;;;;16.10;99.90;;;;;;5075122;28;20356;-81
2021/06/17 01:00:19;;;;;;;;;;;16.10;99.90;;;;;;5075056;28;19935;-81
2021/06/17 01:02:46;;;;;;;;;;;16.10;99.90;;;;;;5074924;28;19925;-81
2021/06/17 01:05:14;;;;;;;;;;;16.00;99.90;;;;;;5074849;28;19925;-81
2021/06/17 01:07:45;;;;;;;;;;;16.00;99.90;;;;;;5075038;28;19934;-81
2021/06/17 01:10:13;;;;;;;;;;;16.00;99.90;;;;;;5074958;28;19931;-81
2021/06/17 01:12:43;;;;;;;;;;;16.00;99.90;;;;;;5074965;28;19925;-81
2021/06/17 01:15:10;;;;;;;;;;;16.00;99.90;;;;;;5074961;28;20260;-81
2021/06/17 01:17:38;;;;;;;;;;;16.00;99.90;;;;;;5074956;28;19924;-81
2021/06/17 01:20:06;;;;;;;;;;;16.00;99.90;;;;;;5075153;28;19924;-81
2021/06/17 01:22:34;;;;;;;;;;;16.10;99.90;;;;;;5075112;28;19924;-81
2021/06/17 01:25:12;;;;;;;;;;;16.10;99.90;;;;;;5075024;28;19936;-81
2021/06/17 01:27:40;;;;;;;;;;;16.10;99.90;;;;;;5074834;28;20348;-81
2021/06/17 01:30:09;;;;;;;;;;;16.10;99.90;;;;;;5074711;28;20333;-81
2021/06/17 01:32:36;;;;;;;;;;;16.10;99.90;;;;;;5074813;28;20364;-82
2021/06/17 01:35:04;;;;;;;;;;;16.00;99.90;;;;;;5074992;28;20279;-81
2021/06/17 01:37:30;;;;;;;;;;;16.00;99.90;;;;;;5074929;28;19943;-82
2021/06/17 01:39:57;;;;;;;;;;;16.00;99.90;;;;;;5074697;28;20410;-82
2021/06/17 01:42:24;;;;;;;;;;;16.00;99.90;;;;;;5074686;28;19924;-81
2021/06/17 01:44:51;;;;;;;;;;;16.00;99.90;;;;;;5074703;28;19989;-81
2021/06/17 01:47:20;;;;;;;;;;;16.00;99.90;;;;;;5074788;28;20272;-81
2021/06/17 01:49:46;;;;;;;;;;;16.00;99.90;;;;;;5074740;28;19936;-82
2021/06/17 01:52:13;;;;;;;;;;;16.00;99.90;;;;;;5074609;28;19925;-81
2021/06/17 01:54:41;;;;;;;;;;;16.00;99.90;;;;;;5074563;28;20352;-81
2021/06/17 01:57:08;;;;;;;;;;;16.00;99.90;;;;;;5074882;28;19939;-82
2021/06/17 01:59:35;;;;;;;;;;;16.00;99.90;;;;;;5074521;28;19925;-82
2021/06/17 02:02:02;;;;;;;;;;;16.00;99.90;;;;;;5074705;28;19924;-82
2021/06/17 02:04:30;;;;;;;;;;;15.90;99.90;;;;;;5074590;28;20253;-82
2021/06/17 02:06:57;;;;;;;;;;;15.90;99.90;;;;;;5074344;28;19925;-82
2021/06/17 02:09:24;;;;;;;;;;;15.90;99.90;;;;;;5074433;28;20291;-81
2021/06/17 02:11:51;;;;;;;;;;;15.90;99.90;;;;;;5074378;28;20341;-82
2021/06/17 02:14:18;;;;;;;;;;;15.90;99.90;;;;;;5076615;28;19924;-82
2021/06/17 02:16:44;;;;;;;;;;;15.90;99.90;;;;;;5078052;28;19935;-82
2021/06/17 02:19:11;;;;;;;;;;;15.90;99.90;;;;;;5077980;28;19925;-82
2021/06/17 02:21:40;;;;;;;;;;;15.90;99.90;;;;;;5077845;28;19928;-81
2021/06/17 02:24:08;;;;;;;;;;;15.90;99.90;;;;;;5077848;28;19925;-82
2021/06/17 02:26:35;;;;;;;;;;;15.90;99.90;;;;;;5078223;28;19935;-82
2021/06/17 02:29:02;;;;;;;;;;;15.80;99.90;;;;;;5077839;28;19925;-82
2021/06/17 02:31:30;;;;;;;;;;;15.80;99.90;;;;;;5077760;28;20344;-82
2021/06/17 02:33:56;;;;;;;;;;;15.80;99.90;;;;;;5077673;28;20348;-82
2021/06/17 02:36:25;;;;;;;;;;;15.80;99.90;;;;;;5077846;28;19925;-82
2021/06/17 02:38:54;;;;;;;;;;;15.80;99.90;;;;;;5077474;28;20340;-82
2021/06/17 02:41:21;;;;;;;;;;;15.80;99.90;;;;;;5077555;28;19924;-82
2021/06/17 02:43:48;;;;;;;;;;;15.80;99.90;;;;;;5077781;28;19939;-82
2021/06/17 02:46:15;;;;;;;;;;;15.80;99.90;;;;;;5077563;28;19935;-82
2021/06/17 02:48:42;;;;;;;;;;;15.90;99.90;;;;;;5077489;28;19935;-82
2021/06/17 02:51:09;;;;;;;;;;;15.90;99.90;;;;;;5077232;28;20276;-81
2021/06/17 02:53:36;;;;;;;;;;;15.90;99.90;;;;;;5077373;28;19987;-82
2021/06/17 02:56:06;;;;;;;;;;;15.90;99.90;;;;;;5077526;28;19924;-82
2021/06/17 02:58:36;;;;;;;;;;;15.80;99.90;;;;;;5077318;28;19932;-82
2021/06/17 03:01:04;;;;;;;;;;;15.80;99.90;;;;;;5077141;28;20348;-82
2021/06/17 03:03:32;;;;;;;;;;;15.80;99.90;;;;;;5077112;28;19924;-82
2021/06/17 03:06:02;;;;;;;;;;;15.70;99.90;;;;;;5076916;28;20419;-82
2021/06/17 03:08:30;;;;;;;;;;;15.70;99.90;;;;;;5077279;28;19924;-82
2021/06/17 03:10:59;;;;;;;;;;;15.70;99.90;;;;;;5076903;28;20356;-82
2021/06/17 03:13:27;;;;;;;;;;;15.60;99.90;;;;;;5077176;28;20264;-82
2021/06/17 03:15:54;;;;;;;;;;;15.60;99.90;;;;;;5076876;28;19935;-82
2021/06/17 03:18:20;;;;;;;;;;;15.60;99.90;;;;;;5076917;28;19924;-82
2021/06/17 03:20:47;;;;;;;;;;;15.50;99.90;;;;;;5076806;28;19935;-82
2021/06/17 03:23:15;;;;;;;;;;;15.50;99.90;;;;;;5077060;28;19936;-82
2021/06/17 03:25:42;;;;;;;;;;;15.50;99.90;;;;;;5076636;28;20397;-82
2021/06/17 03:28:09;;;;;;;;;;;15.50;99.90;;;;;;5076701;28;19939;-82
2021/06/17 03:30:37;;;;;;;;;;;15.50;99.90;;;;;;5076598;28;19925;-82
2021/06/17 03:33:04;;;;;;;;;;;15.50;99.90;;;;;;5076525;28;20353;-82
2021/06/17 03:35:32;;;;;;;;;;;15.40;99.90;;;;;;5076596;28;19929;-82
2021/06/17 03:37:59;;;;;;;;;;;15.50;99.90;;;;;;5076536;28;19928;-82
2021/06/17 03:40:26;;;;;;;;;;;15.60;99.90;;;;;;5076602;28;19935;-82
2021/06/17 03:42:53;;;;;;;;;;;15.60;99.90;;;;;;5076313;28;19924;-82
2021/06/17 03:45:20;;;;;;;;;;;15.60;99.90;;;;;;5076340;28;19929;-82
2021/06/17 03:47:48;;;;;;;;;;;15.60;99.90;;;;;;5076577;28;19924;-81
2021/06/17 03:50:15;;;;;;;;;;;15.70;99.90;;;;;;5076390;28;19935;-82
2021/06/17 03:52:43;;;;;;;;;;;15.70;99.90;;;;;;5076358;28;19925;-82
2021/06/17 03:55:11;;;;;;;;;;;15.70;99.90;;;;;;5076248;28;19933;-82
2021/06/17 03:57:38;;;;;;;;;;;15.70;99.90;;;;;;5075992;28;19924;-82
2021/06/17 04:00:05;;;;;;;;;;;15.80;99.90;;;;;;5075905;28;19925;-82
2021/06/17 04:02:32;;;;;;;;;;;15.80;99.90;;;;;;5075921;28;19934;-82
2021/06/17 04:05:01;;;;;;;;;;;15.80;99.90;;;;;;5076139;28;19986;-82
2021/06/17 04:07:28;;;;;;;;;;;15.80;99.90;;;;;;5075886;28;19924;-82
2021/06/17 04:09:55;;;;;;;;;;;15.80;99.90;;;;;;5075682;28;19924;-82
2021/06/17 04:12:23;;;;;;;;;;;15.80;99.90;;;;;;5075741;28;19924;-82
2021/06/17 04:14:50;;;;;;;;;;;15.80;99.90;;;;;;5075676;28;19928;-83
2021/06/17 04:17:18;;;;;;;;;;;15.80;99.90;;;;;;5075723;28;19924;-82
2021/06/17 04:19:44;;;;;;;;;;;15.80;99.90;;;;;;5075901;28;19990;-82
2021/06/17 04:22:13;;;;;;;;;;;15.80;99.90;;;;;;5075714;28;20371;-82
2021/06/17 04:24:40;;;;;;;;;;;15.80;99.90;;;;;;5075678;28;19935;-82
2021/06/17 04:27:07;;;;;;;;;;;15.80;99.90;;;;;;5075682;28;19924;-82
2021/06/17 04:29:37;;;;;;;;;;;15.80;99.90;;;;;;5075401;28;19925;-82
2021/06/17 04:32:05;;;;;;;;;;;15.80;99.90;;;;;;5075339;28;19976;-81
2021/06/17 04:34:32;;;;;;;;;;;15.80;99.90;;;;;;5075593;28;19935;-82
2021/06/17 04:36:58;;;;;;;;;;;15.80;99.90;;;;;;5075245;28;19925;-81
2021/06/17 04:39:27;;;;;;;;;;;15.80;99.90;;;;;;5075354;28;20367;-81
2021/06/17 04:41:54;;;;;;;;;;;15.80;99.90;;;;;;5075444;28;19974;-82
2021/06/17 04:44:20;;;;;;;;;;;15.80;99.90;;;;;;5075258;28;20253;-82
2021/06/17 04:46:48;;;;;;;;;;;15.90;99.90;;;;;;5075286;28;19943;-82
2021/06/17 04:49:15;;;;;;;;;;;15.90;99.90;;;;;;5075338;28;19924;-82
2021/06/17 04:51:41;;;;;;;;;;;15.80;99.90;;;;;;5075503;28;20027;-82
2021/06/17 04:54:09;;;;;;;;;;;15.80;99.90;;;;;;5075182;28;19928;-82
2021/06/17 04:56:37;;;;;;;;;;;15.80;99.90;;;;;;5075097;28;19925;-82
2021/06/17 04:59:04;;;;;;;;;;;15.80;99.90;;;;;;5075090;28;19951;-82
2021/06/17 05:01:30;;;;;;;;;;;15.80;99.90;;;;;;5075132;28;19935;-82
2021/06/17 05:03:57;;;;;;;;;;;15.90;99.90;;;;;;5075280;28;19924;-82
2021/06/17 05:06:26;;;;;;;;;;;15.90;99.90;;;;;;5074765;28;20332;-82
2021/06/17 05:11:38;;;;;;;;;;;15.90;99.90;;;;;;5075019;28;19932;-82
2021/06/17 05:14:05;;;;;;;;;;;16.00;99.90;;;;;;5075050;28;19932;-82
2021/06/17 05:16:32;;;;;;;;;;;16.00;99.90;;;;;;5074973;28;19925;-82
2021/06/17 05:18:59;;;;;;;;;;;16.10;99.90;;;;;;5075244;28;19924;-82
2021/06/17 05:21:25;;;;;;;;;;;16.10;99.90;;;;;;5074967;28;19924;-82
2021/06/17 05:23:52;;;;;;;;;;;16.10;99.90;;;;;;5074750;28;20352;-82
2021/06/17 05:26:19;;;;;;;;;;;16.20;99.90;;;;;;5074809;28;19924;-82
2021/06/17 05:28:47;;;;;;;;;;;16.20;99.90;;;;;;5074782;28;19935;-82
2021/06/17 05:31:14;;;;;;;;;;;16.30;99.90;;;;;;5074745;28;20279;-82
2021/06/17 05:33:43;;;;;;;;;;;16.20;99.90;;;;;;5074762;28;19928;-81
2021/06/17 05:36:10;;;;;;;;;;;16.20;99.90;;;;;;5074926;28;19924;-82
2021/06/17 05:38:37;;;;;;;;;;;16.20;99.90;;;;;;5074799;28;20374;-81
2021/06/17 05:41:04;;;;;;;;;;;16.10;99.90;;;;;;5074724;28;19936;-82
2021/06/17 05:43:31;;;;;;;;;;;16.10;99.90;;;;;;5074869;28;19929;-82
2021/06/17 05:45:59;;;;;;;;;;;16.20;99.90;;;;;;5074874;28;19946;-82
2021/06/17 05:48:26;;;;;;;;;;;16.20;99.90;;;;;;5075631;28;19924;-81
2021/06/17 05:50:52;;;;;;;;;;;16.20;99.90;;;;;;5078740;28;19935;-82
2021/06/17 05:53:19;;;;;;;;;;;16.20;99.90;;;;;;5078450;28;20264;-81
2021/06/17 05:55:46;;;;;;;;;;;16.20;99.90;;;;;;5078454;28;19932;-82
2021/06/17 05:58:13;;;;;;;;;;;16.30;99.90;;;;;;5078689;28;19924;-81
2021/06/17 06:00:40;;;;;;;;;;;16.30;99.90;;;;;;5078498;28;19924;-82
2021/06/17 06:03:08;;;;;;;;;;;16.30;99.90;;;;;;5078284;28;19925;-82
2021/06/17 06:05:35;;;;;;;;;;;16.30;99.90;;;;;;5078131;28;19924;-82
2021/06/17 06:08:02;;;;;;;;;;;16.30;99.90;;;;;;5078030;28;19954;-81
2021/06/17 06:10:29;;;;;;;;;;;16.30;99.90;;;;;;5078332;28;20262;-82
2021/06/17 06:12:56;;;;;;;;;;;16.30;99.90;;;;;;5078362;28;19935;-82
2021/06/17 06:15:23;;;;;;;;;;;16.30;99.90;;;;;;5078071;28;20375;-81
2021/06/17 06:17:49;;;;;;;;;;;16.30;99.90;;;;;;5078017;28;19925;-81
2021/06/17 06:20:18;;;;;;;;;;;16.40;99.90;;;;;;5078083;28;19925;-82
2021/06/17 06:22:45;;;;;;;;;;;16.30;99.90;;;;;;5078244;28;19951;-82
2021/06/17 06:25:12;;;;;;;;;;;16.40;99.90;;;;;;5077918;28;20348;-82
2021/06/17 06:27:41;;;;;;;;;;;16.40;99.90;;;;;;5077949;28;19939;-82
2021/06/17 06:30:08;;;;;;;;;;;16.40;99.90;;;;;;5077918;28;19972;-82
2021/06/17 06:32:35;;;;;;;;;;;16.50;99.90;;;;;;5077667;28;19924;-82
2021/06/17 06:35:02;;;;;;;;;;;16.50;99.90;;;;;;5077543;28;19928;-81
2021/06/17 06:37:30;;;;;;;;;;;16.60;99.90;;;;;;5077755;28;20252;-81
2021/06/17 06:39:57;;;;;;;;;;;16.60;99.90;;;;;;5077828;28;19924;-82
2021/06/17 06:42:23;;;;;;;;;;;16.70;99.90;;;;;;5077666;28;19925;-81
2021/06/17 06:44:50;;;;;;;;;;;16.70;99.90;;;;;;5077539;28;19931;-82
2021/06/17 06:47:17;;;;;;;;;;;16.70;99.90;;;;;;5077600;28;19924;-81
2021/06/17 06:49:44;;;;;;;;;;;16.80;99.90;;;;;;5077468;28;19934;-81
2021/06/17 06:52:11;;;;;;;;;;;16.90;99.90;;;;;;5077367;28;19951;-81
2021/06/17 06:54:39;;;;;;;;;;;17.00;99.90;;;;;;5077420;28;19934;-82
2021/06/17 06:57:06;;;;;;;;;;;17.20;99.90;;;;;;5077455;28;19935;-81
2021/06/17 06:59:33;;;;;;;;;;;17.30;99.90;;;;;;5076966;28;19929;-80
2021/06/17 07:02:00;;;;;;;;;;;17.40;99.90;;;;;;5077230;28;19924;-81
2021/06/17 07:04:26;;;;;;;;;;;17.40;99.90;;;;;;5077234;28;19925;-82
2021/06/17 07:06:53;;;;;;;;;;;17.50;99.90;;;;;;5076978;28;19934;-81
2021/06/17 07:09:20;;;;;;;;;;;17.60;99.90;;;;;;5077025;28;19931;-81
2021/06/17 07:11:48;;;;;;;;;;;17.70;99.90;;;;;;5076937;28;19930;-82
2021/06/17 07:14:16;;;;;;;;;;;17.70;99.90;;;;;;5077102;28;20360;-81
2021/06/17 07:16:43;;;;;;;;;;;17.80;99.90;;;;;;5077209;28;19928;-81
2021/06/17 07:19:11;;;;;;;;;;;18.00;99.90;;;;;;5076899;28;19924;-81
2021/06/17 07:21:38;;;;;;;;;;;18.10;99.90;;;;;;5077035;28;19932;-81
2021/06/17 07:24:05;;;;;;;;;;;18.20;99.90;;;;;;5076976;28;19935;-81
2021/06/17 07:26:32;;;;;;;;;;;18.20;99.90;;;;;;5076741;28;20504;-80
2021/06/17 07:29:01;;;;;;;;;;;18.20;99.90;;;;;;5076649;28;19924;-81
2021/06/17 07:31:28;;;;;;;;;;;18.10;99.90;;;;;;5075963;28;19924;-83
2021/06/17 07:33:55;;;;;;;;;;;18.20;99.90;;;;;;5076107;28;20337;-83
2021/06/17 07:36:21;;;;;;;;;;;18.10;99.90;;;;;;5076273;28;19924;-83
2021/06/17 07:38:48;;;;;;;;;;;18.00;99.90;;;;;;5073649;28;19924;-83
2021/06/17 07:41:15;;;;;;;;;;;18.00;99.90;;;;;;5076062;28;20253;-83
2021/06/17 07:43:42;;;;;;;;;;;17.80;99.90;;;;;;5075914;28;20558;-84
2021/06/17 07:46:10;;;;;;;;;;;17.80;99.90;;;;;;5073302;28;19933;-83
2021/06/17 07:48:37;;;;;;;;;;;17.70;99.90;;;;;;5076053;28;19924;-84
2021/06/17 07:51:04;;;;;;;;;;;17.60;99.90;;;;;;5076298;28;20269;-84
2021/06/17 07:53:31;;;;;;;;;;;17.60;99.90;;;;;;5076106;28;19924;-84
2021/06/17 07:55:58;;;;;;;;;;;17.60;99.90;;;;;;5076213;28;19930;-84
2021/06/17 07:58:25;;;;;;;;;;;17.50;99.90;;;;;;5076178;28;19924;-84
2021/06/17 08:00:51;;;;;;;;;;;17.40;99.90;;;;;;5075941;28;19931;-81
2021/06/17 08:03:20;;;;;;;;;;;17.40;99.90;;;;;;5075981;28;19924;-82
2021/06/17 08:05:46;;;;;;;;;;;17.50;99.90;;;;;;5075386;28;20271;-81
2021/06/17 08:08:13;;;;;;;;;;;17.50;99.90;;;;;;5075338;28;19924;-82
2021/06/17 08:10:41;;;;;;;;;;;17.50;99.90;;;;;;5075014;28;19925;-82
2021/06/17 08:13:07;;;;;;;;;;;17.50;99.90;;;;;;5075159;28;19924;-81
2021/06/17 08:15:34;;;;;;;;;;;17.50;99.90;;;;;;5055616;28;19948;-82
2021/06/17 08:18:01;;;;;;;;;;;17.60;99.90;;;;;;5055775;28;20249;-81
2021/06/17 08:20:29;;;;;;;;;;;17.70;99.90;;;;;;5055735;28;19925;-82
2021/06/17 08:22:56;;;;;;;;;;;17.90;99.90;;;;;;5055767;28;19924;-81
2021/06/17 08:25:23;;;;;;;;;;;18.00;99.90;;;;;;5055631;28;19936;-82
2021/06/17 08:27:50;;;;;;;;;;;18.00;99.90;;;;;;5055563;28;19931;-82
2021/06/17 08:30:18;;;;;;;;;;;18.20;99.90;;;;;;5055551;28;19966;-81
2021/06/17 08:32:44;;;;;;;;;;;18.50;99.90;;;;;;5055100;28;19925;-81
2021/06/17 08:35:13;;;;;;;;;;;18.80;99.90;;;;;;5054897;28;19935;-81
2021/06/17 08:37:41;;;;;;;;;;;19.10;99.90;;;;;;5055555;28;19933;-81
2021/06/17 08:40:09;;;;;;;;;;;19.40;99.90;;;;;;5055411;28;19933;-81
2021/06/17 08:42:35;;;;;;;;;;;19.80;99.90;;;;;;5055330;28;20238;-81
2021/06/17 08:45:05;;;;;;;;;;;21.00;99.90;;;;;;5055345;28;19935;-82
2021/06/17 08:47:33;;;;;;;;;;;22.20;94.10;;;;;;5055223;28;19925;-82
2021/06/17 08:50:01;;;;;;;;;;;22.60;90.50;;;;;;5055453;28;19935;-82
2021/06/17 08:52:31;;;;;;;;;;;22.30;90.60;;;;;;5055300;28;20023;-81
2021/06/17 08:55:03;;;;;;;;;;;22.10;92.50;;;;;;5055268;28;19936;-81
2021/06/17 08:57:30;;;;;;;;;;;22.00;93.10;;;;;;5055442;28;19924;-84
2021/06/17 08:59:56;;;;;;;;;;;21.80;93.40;;;;;;5055265;28;19932;-83
2021/06/17 09:02:24;;;;;;;;;;;21.60;96.20;;;;;;5055181;28;20357;-84
2021/06/17 09:04:51;;;;;;;;;;;21.30;94.40;;;;;;5054968;28;19924;-84
2021/06/17 09:07:20;;;;;;;;;;;21.00;96.70;;;;;;5054601;28;19925;-84
2021/06/17 09:09:48;;;;;;;;;;;20.70;96.30;;;;;;5053250;28;19925;-84
2021/06/17 09:12:17;;;;;;;;;;;20.50;97.20;;;;;;5054521;28;19924;-84
2021/06/17 09:14:49;;;;;;;;;;;20.30;98.50;;;;;;5054636;28;19928;-84
2021/06/17 09:17:16;;;;;;;;;;;20.50;99.00;;;;;;5054159;28;19925;-84
2021/06/17 09:19:44;;;;;;;;;;;20.60;98.60;;;;;;5054968;28;19936;-83
2021/06/17 09:22:11;;;;;;;;;;;20.70;98.90;;;;;;5055427;28;20011;-84
2021/06/17 09:24:38;;;;;;;;;;;20.70;98.20;;;;;;5058829;28;20245;-84
2021/06/17 09:27:35;;;;;;;;;;;20.50;98.10;;;;;;5058868;28;19925;-84
2021/06/17 09:30:17;;;;;;;;;;;20.40;98.90;;;;;;5017384;28;19925;-84
2021/06/17 09:32:47;;;;;;;;;;;20.30;99.40;;;;;;5017399;28;19929;-84
2021/06/17 09:35:15;;;;;;;;;;;20.30;99.50;;;;;;5017368;28;20064;-84
2021/06/17 09:37:41;;;;;;;;;;;20.20;98.20;;;;;;5017460;28;20342;-84
2021/06/17 09:40:24;;;;;;;;;;;20.10;99.40;;;;;;5017435;28;20012;-84
2021/06/17 09:42:51;;;;;;;;;;;19.90;99.90;;;;;;5017364;28;19925;-84
2021/06/17 09:45:20;;;;;;;;;;;19.80;99.90;;;;;;5017349;28;19936;-84
2021/06/17 09:47:46;;;;;;;;;;;19.80;99.90;;;;;;5017315;28;19926;-84
2021/06/17 09:50:20;;;;;;;;;;;19.90;99.90;;;;;;5017261;28;19945;-84
2021/06/17 09:52:48;;;;;;;;;;;20.20;99.20;;;;;;5017225;28;20366;-84
2021/06/17 09:55:14;;;;;;;;;;;20.40;98.30;;;;;;5017218;28;20394;-83
2021/06/17 09:57:41;;;;;;;;;;;20.50;99.00;;;;;;5017009;28;19934;-84
2021/06/17 10:00:09;;;;;;;;;;;20.60;97.80;;;;;;5017075;28;20970;-84
2021/06/17 10:02:38;;;;;;;;;;;20.60;98.30;;;;;;5017175;28;20261;-84
2021/06/17 10:05:11;;;;;;;;;;;20.80;97.00;;;;;;5053251;28;19933;-83
2021/06/17 10:07:38;;;;;;;;;;;20.80;96.50;;;;;;5058196;28;19924;-84
2021/06/17 10:10:05;;;;;;;;;;;20.70;96.60;;;;;;5058095;28;20351;-84
2021/06/17 10:12:32;;;;;;;;;;;20.80;97.00;;;;;;5058134;28;19925;-84
2021/06/17 10:15:00;;;;;;;;;;;20.90;97.10;;;;;;5058335;28;19940;-84
2021/06/17 10:17:26;;;;;;;;;;;21.00;94.60;;;;;;5058222;28;19932;-84
2021/06/17 10:19:56;;;;;;;;;;;21.00;94.80;;;;;;5058056;28;19924;-83
2021/06/17 10:22:24;;;;;;;;;;;20.90;95.80;;;;;;5058354;28;19990;-84
2021/06/17 10:24:51;;;;;;;;;;;20.80;96.40;;;;;;5058018;28;19935;-84
2021/06/17 10:27:18;;;;;;;;;;;20.70;97.50;;;;;;5057994;28;19935;-84
2021/06/17 10:29:48;;;;;;;;;;;20.50;97.30;;;;;;5058144;28;19986;-84
2021/06/17 10:32:17;;;;;;;;;;;20.40;97.90;;;;;;5057915;28;19925;-84
2021/06/17 10:34:57;;;;;;;;;;;20.30;97.70;;;;;;5057063;28;20023;-84
2021/06/17 10:37:26;;;;;;;;;;;20.40;97.00;;;;;;5057771;28;19928;-84
2021/06/17 10:39:53;;;;;;;;;;;20.40;95.40;;;;;;5057644;28;19924;-84
2021/06/17 10:42:27;;;;;;;;;;;20.50;96.20;;;;;;5057795;28;19935;-84
2021/06/17 10:44:55;;;;;;;;;;;20.60;96.30;;;;;;5057740;28;19929;-83
2021/06/17 10:47:41;;;;;;;;;;;20.90;96.10;;;;;;5057689;28;20353;-83
2021/06/17 10:50:09;;;;;;;;;;;21.20;95.20;;;;;;5057417;28;19925;-83
2021/06/17 10:52:37;;;;;;;;;;;21.30;95.10;;;;;;5057393;28;19925;-83
2021/06/17 10:55:04;;;;;;;;;;;21.20;93.50;;;;;;5057487;28;19928;-83
2021/06/17 10:57:51;;;;;;;;;;;21.00;92.80;;;;;;5057230;28;19924;-83
2021/06/17 11:00:50;;;;;;;;;;;20.90;94.10;;;;;;5057035;28;19924;-83
2021/06/17 11:03:35;;;;;;;;;;;20.90;95.10;;;;;;4996248;28;19925;-84
2021/06/17 11:06:03;;;;;;;;;;;20.90;95.40;;;;;;4995901;28;19926;-84
2021/06/17 11:08:30;;;;;;;;;;;21.00;95.70;;;;;;4996250;28;20265;-83
2021/06/17 11:10:59;;;;;;;;;;;21.10;96.20;;;;;;4996306;28;20033;-83
2021/06/17 11:13:26;;;;;;;;;;;21.10;97.20;;;;;;4995996;28;20334;-84
2021/06/17 11:15:53;;;;;;;;;;;21.10;95.00;;;;;;4996059;28;20013;-84
2021/06/17 11:18:39;;;;;;;;;;;21.10;95.00;;;;;;4995999;28;20236;-84
2021/06/17 11:21:07;;;;;;;;;;;21.10;95.00;;;;;;4995883;28;20000;-83
2021/06/17 11:23:34;;;;;;;;;;;21.10;97.00;;;;;;4995956;28;19929;-84
2021/06/17 11:26:01;;;;;;;;;;;21.00;96.80;;;;;;4995916;28;19936;-83
2021/06/17 11:28:42;;;;;;;;;;;21.10;97.80;;;;;;4995879;28;19936;-84
2021/06/17 11:31:09;;;;;;;;;;;21.10;97.30;;;;;;4995186;28;20029;-83
2021/06/17 11:33:44;;;;;;;;;;;21.20;99.20;;;;;;5011197;28;19925;-83
2021/06/17 11:36:14;;;;;;;;;;;21.30;98.80;;;;;;5056593;28;19935;-83
2021/06/17 11:38:40;;;;;;;;;;;21.20;97.60;;;;;;5056476;28;19925;-83
2021/06/17 11:41:14;;;;;;;;;;;21.10;98.20;;;;;;5056587;28;19931;-83
2021/06/17 11:43:41;;;;;;;;;;;21.10;99.20;;;;;;5056647;28;19956;-83
2021/06/17 11:46:26;;;;;;;;;;;21.00;98.70;;;;;;5055433;28;20414;-84
2021/06/17 11:48:53;;;;;;;;;;;21.00;98.60;;;;;;5046286;28;19931;-83
2021/06/17 11:51:21;;;;;;;;;;;21.00;99.30;;;;;;5056287;28;19925;-83
2021/06/17 11:53:50;;;;;;;;;;;21.20;99.40;;;;;;5055335;28;19924;-83
2021/06/17 11:56:24;;;;;;;;;;;21.20;99.80;;;;;;5071919;28;20031;-84
2021/06/17 11:58:51;;;;;;;;;;;21.20;99.90;;;;;;5074351;28;19936;-83
2021/06/17 12:01:18;;;;;;;;;;;21.10;99.90;;;;;;5076041;28;19935;-83
2021/06/17 12:03:52;;;;;;;;;;;21.10;99.90;;;;;;5076134;28;19924;-84
2021/06/17 12:06:18;;;;;;;;;;;21.10;99.90;;;;;;5075846;28;19924;-83
2021/06/17 12:08:47;;;;;;;;;;;21.10;99.90;;;;;;5075796;28;20340;-83
2021/06/17 12:11:17;;;;;;;;;;;21.20;99.30;;;;;;5073903;28;19925;-84
2021/06/17 12:13:48;;;;;;;;;;;21.40;99.90;;;;;;5075784;28;20331;-82
2021/06/17 12:16:17;;;;;;;;;;;21.40;99.20;;;;;;5075969;28;19934;-83
2021/06/17 12:18:44;;;;;;;;;;;21.40;99.90;;;;;;5076086;28;19929;-83
2021/06/17 12:21:11;;;;;;;;;;;21.40;99.90;;;;;;5075931;28;19935;-83
2021/06/17 12:23:37;;;;;;;;;;;21.40;99.90;;;;;;5075726;28;20378;-83
2021/06/17 12:26:08;;;;;;;;;;;21.30;99.90;;;;;;5075692;28;19928;-83
2021/06/17 12:28:48;;;;;;;;;;;21.20;99.90;;;;;;5075746;28;19924;-83
2021/06/17 12:31:15;;;;;;;;;;;21.20;99.90;;;;;;5076006;28;20012;-83
2021/06/17 12:33:43;;;;;;;;;;;21.10;99.90;;;;;;5075282;28;20257;-83
2021/06/17 12:36:14;;;;;;;;;;;21.00;99.90;;;;;;5075619;28;19932;-83
2021/06/17 12:38:41;;;;;;;;;;;21.00;99.90;;;;;;5075464;28;19935;-83
2021/06/17 12:41:12;;;;;;;;;;;21.10;99.90;;;;;;5075381;28;19924;-83
2021/06/17 12:43:42;;;;;;;;;;;21.10;99.90;;;;;;5075528;28;20257;-83
2021/06/17 12:46:09;;;;;;;;;;;21.00;99.50;;;;;;5075594;28;19986;-83
2021/06/17 12:54:26;;;;;;;;;;;20.90;99.90;;;;;;5075241;28;20001;-83
2021/06/17 12:56:56;;;;;;;;;;;21.00;99.90;;;;;;5074957;28;19924;-83
2021/06/17 12:59:35;;;;;;;;;;;21.10;99.90;;;;;;5075300;28;19924;-83
2021/06/17 13:02:02;;;;;;;;;;;21.10;99.90;;;;;;5075166;28;19924;-83
2021/06/17 13:04:29;;;;;;;;;;;21.20;99.90;;;;;;5075489;28;19934;-82
2021/06/17 13:06:56;;;;;;;;;;;21.20;99.90;;;;;;5075019;28;20440;-83
2021/06/17 13:09:24;;;;;;;;;;;21.40;99.90;;;;;;5073608;28;22555;-83
2021/06/17 13:12:16;;;;;;;;;;;21.50;98.90;;;;;;5073643;28;19925;-83
2021/06/17 13:15:01;;;;;;;;;;;21.50;98.70;;;;;;5074945;28;19935;-83
2021/06/17 13:17:28;;;;;;;;;;;21.50;99.70;;;;;;5075251;28;19932;-84
2021/06/17 13:19:57;;;;;;;;;;;21.40;97.50;;;;;;5075071;28;19938;-83
2021/06/17 13:22:24;;;;;;;;;;;21.40;98.70;;;;;;5074994;28;20349;-84
2021/06/17 13:24:51;;;;;;;;;;;21.40;98.20;;;;;;5075144;28;19940;-83
2021/06/17 13:27:20;;;;;;;;;;;21.40;98.20;;;;;;5075113;28;19925;-83
2021/06/17 13:29:50;;;;;;;;;;;21.40;96.60;;;;;;5074915;28;19935;-83
2021/06/17 13:32:17;;;;;;;;;;;21.40;98.20;;;;;;5074996;28;19935;-83
2021/06/17 13:34:44;;;;;;;;;;;21.50;96.70;;;;;;5074593;28;19924;-83
2021/06/17 13:37:11;;;;;;;;;;;21.50;96.50;;;;;;5074967;28;19950;-83
2021/06/17 13:39:38;;;;;;;;;;;21.60;95.50;;;;;;5074434;28;20275;-83
2021/06/17 13:42:05;;;;;;;;;;;21.70;97.00;;;;;;5074864;28;20040;-83
2021/06/17 13:44:34;;;;;;;;;;;21.80;96.50;;;;;;5074855;28;20370;-83
2021/06/17 13:47:01;;;;;;;;;;;21.80;96.80;;;;;;5074653;28;19975;-82
2021/06/17 13:49:28;;;;;;;;;;;21.80;95.80;;;;;;5074780;28;19925;-83
2021/06/17 13:51:56;;;;;;;;;;;21.80;95.20;;;;;;5074647;28;19934;-83
2021/06/17 13:54:23;;;;;;;;;;;21.70;94.70;;;;;;5074586;28;19979;-83
2021/06/17 13:56:50;;;;;;;;;;;21.70;94.20;;;;;;5074795;28;19935;-83
2021/06/17 13:59:16;;;;;;;;;;;21.60;94.30;;;;;;5074859;28;19935;-83
2021/06/17 14:01:45;;;;;;;;;;;21.50;95.50;;;;;;5074783;28;19924;-83
2021/06/17 14:04:16;;;;;;;;;;;21.50;95.50;;;;;;5074420;28;19925;-81
2021/06/17 14:06:43;;;;;;;;;;;21.50;95.40;;;;;;5076190;28;19925;-86
2021/06/17 14:09:09;;;;;;;;;;;21.40;96.60;;;;;;5075002;28;19924;-84
2021/06/17 14:11:36;;;;;;;;;;;21.30;96.80;;;;;;5078293;28;19924;-83
2021/06/17 14:14:03;;;;;;;;;;;21.10;96.50;;;;;;5078124;28;19936;-84
2021/06/17 14:16:30;;;;;;;;;;;21.10;96.70;;;;;;5080386;28;20249;-85
2021/06/17 14:18:58;;;;;;;;;;;21.00;97.20;;;;;;5081441;28;19924;-83
2021/06/17 14:21:25;;;;;;;;;;;21.00;97.40;;;;;;5078066;28;19928;-83
2021/06/17 14:23:52;;;;;;;;;;;20.80;98.20;;;;;;5078011;28;20356;-82
2021/06/17 14:26:19;;;;;;;;;;;20.80;99.60;;;;;;5081264;28;20020;-83
2021/06/17 14:28:46;;;;;;;;;;;20.80;98.90;;;;;;5077985;28;19929;-82
2021/06/17 14:31:13;;;;;;;;;;;20.80;99.90;;;;;;5077914;28;19924;-83